sensor_id;sensor_type;location;lat;lon;timestamp;pressure;altitude;pressure_sealevel;temperature;humidity
55755;BME280;41674;52.290;-1.474;2023-05-21T00:00:44;101873.36;;;9.12;64.75
55755;BME280;41674;52.290;-1.474;2023-05-21T00:03:14;101870.40;;;9.79;62.84
55755;BME280;41674;52.290;-1.474;2023-05-21T00:05:44;101870.37;;;9.79;62.43
55755;BME280;41674;52.290;-1.474;2023-05-21T00:08:13;101874.64;;;10.19;61.33
55755;BME280;41674;52.290;-1.474;2023-05-21T00:10:43;101874.75;;;10.19;59.57
55755;BME280;41674;52.290;-1.474;2023-05-21T00:13:12;101873.87;;;11.13;57.39
55755;BME280;41674;52.290;-1.474;2023-05-21T00:15:42;101874.17;;;10.60;58.89
55755;BME280;41674;52.290;-1.474;2023-05-21T00:18:12;101879.31;;;9.47;62.50
55755;BME280;41674;52.290;-1.474;2023-05-21T00:20:41;101876.84;;;9.24;64.70
55755;BME280;41674;52.290;-1.474;2023-05-21T00:23:11;101872.03;;;9.20;64.51
55755;BME280;41674;52.290;-1.474;2023-05-21T00:25:41;101870.72;;;8.85;65.71
55755;BME280;41674;52.290;-1.474;2023-05-21T00:28:10;101866.28;;;9.09;65.42
55755;BME280;41674;52.290;-1.474;2023-05-21T00:30:40;101858.90;;;9.75;63.07
55755;BME280;41674;52.290;-1.474;2023-05-21T00:33:10;101856.93;;;9.98;61.94
55755;BME280;41674;52.290;-1.474;2023-05-21T00:35:39;101858.11;;;9.24;63.27
55755;BME280;41674;52.290;-1.474;2023-05-21T00:38:09;101852.79;;;9.96;63.47
55755;BME280;41674;52.290;-1.474;2023-05-21T00:40:44;101847.03;;;9.61;63.62
55755;BME280;41674;52.290;-1.474;2023-05-21T00:43:08;101843.28;;;9.60;63.60
55755;BME280;41674;52.290;-1.474;2023-05-21T00:45:37;101847.18;;;9.80;63.00
55755;BME280;41674;52.290;-1.474;2023-05-21T00:48:12;101851.91;;;8.79;67.41
55755;BME280;41674;52.290;-1.474;2023-05-21T00:50:36;101850.03;;;10.18;63.93
55755;BME280;41674;52.290;-1.474;2023-05-21T00:53:06;101848.57;;;9.86;64.36
55755;BME280;41674;52.290;-1.474;2023-05-21T00:55:36;101845.10;;;10.16;64.99
55755;BME280;41674;52.290;-1.474;2023-05-21T00:58:06;101840.66;;;10.18;63.05
55755;BME280;41674;52.290;-1.474;2023-05-21T01:00:35;101839.79;;;9.78;64.81
55755;BME280;41674;52.290;-1.474;2023-05-21T01:03:05;101834.62;;;9.30;67.31
55755;BME280;41674;52.290;-1.474;2023-05-21T01:05:34;101831.74;;;9.41;65.58
55755;BME280;41674;52.290;-1.474;2023-05-21T01:08:04;101834.02;;;9.67;64.72
55755;BME280;41674;52.290;-1.474;2023-05-21T01:10:33;101833.99;;;9.51;63.81
55755;BME280;41674;52.290;-1.474;2023-05-21T01:13:03;101841.18;;;9.14;64.48
55755;BME280;41674;52.290;-1.474;2023-05-21T01:15:33;101844.76;;;9.32;65.02
55755;BME280;41674;52.290;-1.474;2023-05-21T01:18:02;101845.10;;;8.76;67.26
55755;BME280;41674;52.290;-1.474;2023-05-21T01:20:31;101840.66;;;9.28;66.63
55755;BME280;41674;52.290;-1.474;2023-05-21T01:23:01;101831.69;;;9.02;65.55
55755;BME280;41674;52.290;-1.474;2023-05-21T01:25:30;101831.99;;;8.96;67.19
55755;BME280;41674;52.290;-1.474;2023-05-21T01:28:00;101829.52;;;8.68;67.82
55755;BME280;41674;52.290;-1.474;2023-05-21T01:30:30;101830.67;;;9.34;67.40
55755;BME280;41674;52.290;-1.474;2023-05-21T01:33:02;101829.87;;;9.31;67.47
55755;BME280;41674;52.290;-1.474;2023-05-21T01:35:32;101827.61;;;9.87;64.31
55755;BME280;41674;52.290;-1.474;2023-05-21T01:38:04;101832.55;;;10.08;64.70
55755;BME280;41674;52.290;-1.474;2023-05-21T01:40:33;101837.23;;;9.20;67.39
55755;BME280;41674;52.290;-1.474;2023-05-21T01:42:58;101830.91;;;9.68;67.24
55755;BME280;41674;52.290;-1.474;2023-05-21T01:45:31;101830.99;;;9.98;68.07
55755;BME280;41674;52.290;-1.474;2023-05-21T01:47:57;101831.01;;;9.73;68.15
55755;BME280;41674;52.290;-1.474;2023-05-21T01:50:27;101825.83;;;9.40;69.14
55755;BME280;41674;52.290;-1.474;2023-05-21T01:52:56;101825.53;;;8.83;70.61
55755;BME280;41674;52.290;-1.474;2023-05-21T01:55:26;101823.09;;;9.28;70.02
55755;BME280;41674;52.290;-1.474;2023-05-21T01:57:56;101820.15;;;9.85;67.57
55755;BME280;41674;52.290;-1.474;2023-05-21T02:00:26;101816.26;;;9.88;67.18
55755;BME280;41674;52.290;-1.474;2023-05-21T02:02:54;101827.16;;;9.62;68.45
55755;BME280;41674;52.290;-1.474;2023-05-21T02:05:24;101828.28;;;9.48;68.99
55755;BME280;41674;52.290;-1.474;2023-05-21T02:07:54;101823.85;;;9.54;68.08
55755;BME280;41674;52.290;-1.474;2023-05-21T02:10:24;101826.23;;;9.74;67.58
55755;BME280;41674;52.290;-1.474;2023-05-21T02:12:53;101818.53;;;10.63;65.28
55755;BME280;41674;52.290;-1.474;2023-05-21T02:15:22;101817.00;;;9.89;66.28
55755;BME280;41674;52.290;-1.474;2023-05-21T02:17:52;101816.28;;;10.15;65.76
55755;BME280;41674;52.290;-1.474;2023-05-21T02:20:22;101817.14;;;10.01;66.25
55755;BME280;41674;52.290;-1.474;2023-05-21T02:22:51;101813.99;;;9.75;67.63
55755;BME280;41674;52.290;-1.474;2023-05-21T02:25:21;101817.98;;;9.79;68.38
55755;BME280;41674;52.290;-1.474;2023-05-21T02:27:50;101822.55;;;9.77;68.88
55755;BME280;41674;52.290;-1.474;2023-05-21T02:30:20;101824.33;;;9.33;68.37
55755;BME280;41674;52.290;-1.474;2023-05-21T02:32:49;101824.40;;;9.10;70.01
55755;BME280;41674;52.290;-1.474;2023-05-21T02:35:18;101821.33;;;9.61;69.43
55755;BME280;41674;52.290;-1.474;2023-05-21T02:37:47;101824.67;;;9.50;67.63
55755;BME280;41674;52.290;-1.474;2023-05-21T02:40:17;101826.13;;;9.71;68.11
55755;BME280;41674;52.290;-1.474;2023-05-21T02:42:47;101827.13;;;9.13;68.95
55755;BME280;41674;52.290;-1.474;2023-05-21T02:45:17;101831.13;;;8.81;69.01
55755;BME280;41674;52.290;-1.474;2023-05-21T02:47:46;101829.55;;;9.43;67.15
55755;BME280;41674;52.290;-1.474;2023-05-21T02:50:15;101835.14;;;9.58;66.74
55755;BME280;41674;52.290;-1.474;2023-05-21T02:52:44;101839.49;;;8.85;69.36
55755;BME280;41674;52.290;-1.474;2023-05-21T02:55:14;101839.85;;;9.43;68.30
55755;BME280;41674;52.290;-1.474;2023-05-21T02:57:44;101841.63;;;9.70;67.66
55755;BME280;41674;52.290;-1.474;2023-05-21T03:00:14;101838.20;;;9.71;67.57
55755;BME280;41674;52.290;-1.474;2023-05-21T03:02:43;101833.94;;;9.14;69.28
55755;BME280;41674;52.290;-1.474;2023-05-21T03:05:12;101830.09;;;8.75;70.98
55755;BME280;41674;52.290;-1.474;2023-05-21T03:10:11;101818.75;;;9.43;68.33
55755;BME280;41674;52.290;-1.474;2023-05-21T03:12:41;101811.63;;;9.26;68.76
55755;BME280;41674;52.290;-1.474;2023-05-21T03:15:11;101810.99;;;8.96;69.64
55755;BME280;41674;52.290;-1.474;2023-05-21T03:17:40;101807.18;;;7.88;74.48
55755;BME280;41674;52.290;-1.474;2023-05-21T03:20:10;101804.90;;;7.97;75.42
55755;BME280;41674;52.290;-1.474;2023-05-21T03:22:40;101804.62;;;6.53;81.54
55755;BME280;41674;52.290;-1.474;2023-05-21T03:25:09;101796.74;;;7.46;79.45
55755;BME280;41674;52.290;-1.474;2023-05-21T03:27:39;101794.75;;;8.29;75.27
55755;BME280;41674;52.290;-1.474;2023-05-21T03:30:09;101801.74;;;8.08;74.93
55755;BME280;41674;52.290;-1.474;2023-05-21T03:32:37;101804.96;;;8.77;72.66
55755;BME280;41674;52.290;-1.474;2023-05-21T03:35:08;101804.97;;;9.14;71.06
55755;BME280;41674;52.290;-1.474;2023-05-21T03:37:37;101805.86;;;9.20;71.04
55755;BME280;41674;52.290;-1.474;2023-05-21T03:40:08;101807.74;;;8.33;74.83
55755;BME280;41674;52.290;-1.474;2023-05-21T03:42:36;101812.81;;;9.00;72.01
55755;BME280;41674;52.290;-1.474;2023-05-21T03:45:07;101813.46;;;9.11;71.20
55755;BME280;41674;52.290;-1.474;2023-05-21T03:47:35;101814.48;;;8.61;72.57
55755;BME280;41674;52.290;-1.474;2023-05-21T03:50:06;101815.39;;;8.69;73.10
55755;BME280;41674;52.290;-1.474;2023-05-21T03:52:34;101816.60;;;8.80;72.22
55755;BME280;41674;52.290;-1.474;2023-05-21T03:55:04;101812.22;;;8.93;71.32
55755;BME280;41674;52.290;-1.474;2023-05-21T03:57:33;101807.70;;;9.24;69.45
55755;BME280;41674;52.290;-1.474;2023-05-21T04:00:03;101808.64;;;9.03;70.81
55755;BME280;41674;52.290;-1.474;2023-05-21T04:02:32;101806.15;;;7.93;74.04
55755;BME280;41674;52.290;-1.474;2023-05-21T04:05:02;101806.42;;;8.52;73.25
55755;BME280;41674;52.290;-1.474;2023-05-21T04:07:31;101809.03;;;8.61;71.63
55755;BME280;41674;52.290;-1.474;2023-05-21T04:10:01;101810.01;;;8.57;71.61
55755;BME280;41674;52.290;-1.474;2023-05-21T04:12:30;101808.52;;;9.07;70.10
55755;BME280;41674;52.290;-1.474;2023-05-21T04:15:00;101807.01;;;8.64;71.29
55755;BME280;41674;52.290;-1.474;2023-05-21T04:17:29;101804.17;;;8.39;71.86
55755;BME280;41674;52.290;-1.474;2023-05-21T04:19:59;101804.35;;;9.02;70.18
55755;BME280;41674;52.290;-1.474;2023-05-21T04:22:28;101802.41;;;8.35;71.33
55755;BME280;41674;52.290;-1.474;2023-05-21T04:24:58;101803.16;;;8.86;71.16
55755;BME280;41674;52.290;-1.474;2023-05-21T04:27:27;101803.17;;;8.13;72.97
55755;BME280;41674;52.290;-1.474;2023-05-21T04:29:57;101801.11;;;7.98;73.79
55755;BME280;41674;52.290;-1.474;2023-05-21T04:32:26;101797.39;;;8.27;71.26
55755;BME280;41674;52.290;-1.474;2023-05-21T04:34:56;101795.19;;;8.01;72.22
55755;BME280;41674;52.290;-1.474;2023-05-21T04:37:25;101790.78;;;8.48;72.48
55755;BME280;41674;52.290;-1.474;2023-05-21T04:39:54;101789.78;;;8.92;71.58
55755;BME280;41674;52.290;-1.474;2023-05-21T04:42:24;101788.84;;;9.15;69.57
55755;BME280;41674;52.290;-1.474;2023-05-21T04:44:53;101787.64;;;8.24;72.97
55755;BME280;41674;52.290;-1.474;2023-05-21T04:47:23;101785.67;;;8.37;72.44
55755;BME280;41674;52.290;-1.474;2023-05-21T04:49:52;101783.88;;;7.50;74.90
55755;BME280;41674;52.290;-1.474;2023-05-21T04:52:22;101782.52;;;8.73;71.28
55755;BME280;41674;52.290;-1.474;2023-05-21T04:54:51;101782.95;;;8.72;71.37
55755;BME280;41674;52.290;-1.474;2023-05-21T04:57:21;101781.06;;;8.64;72.39
55755;BME280;41674;52.290;-1.474;2023-05-21T04:59:50;101781.92;;;8.90;71.26
55755;BME280;41674;52.290;-1.474;2023-05-21T05:02:20;101781.80;;;8.86;70.77
55755;BME280;41674;52.290;-1.474;2023-05-21T05:04:49;101778.70;;;9.20;68.33
55755;BME280;41674;52.290;-1.474;2023-05-21T05:07:18;101777.74;;;9.44;68.89
55755;BME280;41674;52.290;-1.474;2023-05-21T05:09:48;101776.56;;;9.70;67.45
55755;BME280;41674;52.290;-1.474;2023-05-21T05:12:18;101788.05;;;9.24;69.63
55755;BME280;41674;52.290;-1.474;2023-05-21T05:14:47;101793.84;;;8.24;73.42
55755;BME280;41674;52.290;-1.474;2023-05-21T05:17:17;101793.17;;;7.84;76.64
55755;BME280;41674;52.290;-1.474;2023-05-21T05:19:46;101790.21;;;8.23;76.08
55755;BME280;41674;52.290;-1.474;2023-05-21T05:22:16;101790.60;;;8.87;76.70
55755;BME280;41674;52.290;-1.474;2023-05-21T05:24:45;101789.28;;;8.75;77.71
55755;BME280;41674;52.290;-1.474;2023-05-21T05:27:15;101791.95;;;8.92;77.31
55755;BME280;41674;52.290;-1.474;2023-05-21T05:29:45;101793.46;;;8.96;79.10
55755;BME280;41674;52.290;-1.474;2023-05-21T05:32:14;101793.58;;;9.23;78.03
55755;BME280;41674;52.290;-1.474;2023-05-21T05:34:44;101792.45;;;9.55;78.23
55755;BME280;41674;52.290;-1.474;2023-05-21T05:37:13;101795.85;;;9.71;78.23
55755;BME280;41674;52.290;-1.474;2023-05-21T05:39:42;101796.11;;;9.74;77.71
55755;BME280;41674;52.290;-1.474;2023-05-21T05:42:12;101794.34;;;9.21;78.59
55755;BME280;41674;52.290;-1.474;2023-05-21T05:44:41;101791.63;;;9.21;79.83
55755;BME280;41674;52.290;-1.474;2023-05-21T05:47:10;101780.27;;;9.77;77.33
55755;BME280;41674;52.290;-1.474;2023-05-21T05:49:40;101779.84;;;9.58;78.60
55755;BME280;41674;52.290;-1.474;2023-05-21T05:52:09;101775.13;;;10.04;79.35
55755;BME280;41674;52.290;-1.474;2023-05-21T05:54:39;101774.69;;;9.87;78.97
55755;BME280;41674;52.290;-1.474;2023-05-21T05:57:08;101776.01;;;9.84;78.95
55755;BME280;41674;52.290;-1.474;2023-05-21T05:59:37;101786.95;;;9.01;83.25
55755;BME280;41674;52.290;-1.474;2023-05-21T06:02:07;101783.64;;;9.36;83.40
55755;BME280;41674;52.290;-1.474;2023-05-21T06:04:36;101774.60;;;10.12;80.25
55755;BME280;41674;52.290;-1.474;2023-05-21T06:07:06;101779.77;;;9.38;82.90
55755;BME280;41674;52.290;-1.474;2023-05-21T06:09:35;101785.57;;;9.14;84.10
55755;BME280;41674;52.290;-1.474;2023-05-21T06:12:06;101776.46;;;9.50;82.16
55755;BME280;41674;52.290;-1.474;2023-05-21T06:14:34;101777.20;;;10.39;80.64
55755;BME280;41674;52.290;-1.474;2023-05-21T06:17:04;101778.38;;;9.90;82.60
55755;BME280;41674;52.290;-1.474;2023-05-21T06:19:34;101782.69;;;11.05;79.55
55755;BME280;41674;52.290;-1.474;2023-05-21T06:22:04;101784.25;;;10.41;80.18
55755;BME280;41674;52.290;-1.474;2023-05-21T06:24:33;101786.39;;;11.10;78.56
55755;BME280;41674;52.290;-1.474;2023-05-21T06:27:02;101787.73;;;10.72;78.79
55755;BME280;41674;52.290;-1.474;2023-05-21T06:29:32;101786.97;;;10.85;76.20
55755;BME280;41674;52.290;-1.474;2023-05-21T06:32:02;101789.29;;;10.64;78.73
55755;BME280;41674;52.290;-1.474;2023-05-21T06:34:30;101790.24;;;11.20;76.81
55755;BME280;41674;52.290;-1.474;2023-05-21T06:37:00;101794.89;;;10.59;77.44
55755;BME280;41674;52.290;-1.474;2023-05-21T06:39:29;101792.83;;;11.78;73.39
55755;BME280;41674;52.290;-1.474;2023-05-21T06:41:58;101794.91;;;11.32;73.71
55755;BME280;41674;52.290;-1.474;2023-05-21T06:44:28;101793.13;;;11.80;72.90
55755;BME280;41674;52.290;-1.474;2023-05-21T06:46:57;101790.90;;;12.06;73.14
55755;BME280;41674;52.290;-1.474;2023-05-21T06:49:27;101793.14;;;12.34;71.50
55755;BME280;41674;52.290;-1.474;2023-05-21T06:51:56;101793.37;;;11.65;72.14
55755;BME280;41674;52.290;-1.474;2023-05-21T06:54:31;101792.36;;;12.02;70.42
55755;BME280;41674;52.290;-1.474;2023-05-21T06:56:55;101795.77;;;12.31;69.08
55755;BME280;41674;52.290;-1.474;2023-05-21T06:59:24;101796.08;;;12.46;70.26
55755;BME280;41674;52.290;-1.474;2023-05-21T07:01:54;101792.02;;;12.34;70.07
55755;BME280;41674;52.290;-1.474;2023-05-21T07:04:23;101791.84;;;12.15;71.01
55755;BME280;41674;52.290;-1.474;2023-05-21T07:06:52;101798.66;;;9.66;81.24
55755;BME280;41674;52.290;-1.474;2023-05-21T07:09:22;101799.84;;;9.63;83.54
55755;BME280;41674;52.290;-1.474;2023-05-21T07:11:51;101797.32;;;10.82;78.96
55755;BME280;41674;52.290;-1.474;2023-05-21T07:14:20;101799.05;;;9.26;82.71
55755;BME280;41674;52.290;-1.474;2023-05-21T07:16:50;101795.99;;;10.61;79.77
55755;BME280;41674;52.290;-1.474;2023-05-21T07:19:20;101796.73;;;11.38;76.15
55755;BME280;41674;52.290;-1.474;2023-05-21T07:21:49;101791.81;;;11.80;73.58
55755;BME280;41674;52.290;-1.474;2023-05-21T07:24:19;101792.41;;;9.95;79.31
55755;BME280;41674;52.290;-1.474;2023-05-21T07:26:48;101793.05;;;10.86;78.52
55755;BME280;41674;52.290;-1.474;2023-05-21T07:29:18;101795.89;;;9.92;82.50
55755;BME280;41674;52.290;-1.474;2023-05-21T07:31:47;101797.16;;;10.90;78.25
55755;BME280;41674;52.290;-1.474;2023-05-21T07:34:16;101795.74;;;9.89;82.63
55755;BME280;41674;52.290;-1.474;2023-05-21T07:36:45;101793.37;;;10.31;82.06
55755;BME280;41674;52.290;-1.474;2023-05-21T07:39:15;101788.99;;;11.53;78.38
55755;BME280;41674;52.290;-1.474;2023-05-21T07:41:44;101786.21;;;12.40;73.30
55755;BME280;41674;52.290;-1.474;2023-05-21T07:44:14;101786.78;;;11.89;73.77
55755;BME280;41674;52.290;-1.474;2023-05-21T07:46:44;101791.11;;;12.74;71.96
55755;BME280;41674;52.290;-1.474;2023-05-21T07:49:13;101789.30;;;12.61;72.21
55755;BME280;41674;52.290;-1.474;2023-05-21T07:51:43;101789.71;;;11.94;75.16
55755;BME280;41674;52.290;-1.474;2023-05-21T07:54:12;101789.26;;;12.75;72.19
55755;BME280;41674;52.290;-1.474;2023-05-21T07:56:42;101789.93;;;13.31;68.70
55755;BME280;41674;52.290;-1.474;2023-05-21T07:59:13;101789.30;;;13.72;66.51
55755;BME280;41674;52.290;-1.474;2023-05-21T08:01:41;101794.17;;;11.65;74.07
55755;BME280;41674;52.290;-1.474;2023-05-21T08:04:11;101790.00;;;12.29;71.94
55755;BME280;41674;52.290;-1.474;2023-05-21T08:06:39;101786.61;;;12.00;72.58
55755;BME280;41674;52.290;-1.474;2023-05-21T08:09:09;101782.59;;;13.42;70.65
55755;BME280;41674;52.290;-1.474;2023-05-21T08:11:38;101782.71;;;12.80;68.73
55755;BME280;41674;52.290;-1.474;2023-05-21T08:14:07;101777.46;;;12.54;68.53
55755;BME280;41674;52.290;-1.474;2023-05-21T08:16:37;101779.30;;;12.27;72.43
55755;BME280;41674;52.290;-1.474;2023-05-21T08:19:06;101783.89;;;11.74;73.39
55755;BME280;41674;52.290;-1.474;2023-05-21T08:21:36;101785.00;;;13.12;68.58
55755;BME280;41674;52.290;-1.474;2023-05-21T08:24:06;101777.34;;;13.85;65.82
55755;BME280;41674;52.290;-1.474;2023-05-21T08:26:35;101781.77;;;12.95;68.77
55755;BME280;41674;52.290;-1.474;2023-05-21T08:29:04;101783.02;;;13.51;65.83
55755;BME280;41674;52.290;-1.474;2023-05-21T08:31:34;101778.87;;;12.07;68.94
55755;BME280;41674;52.290;-1.474;2023-05-21T08:34:04;101781.03;;;12.57;70.49
55755;BME280;41674;52.290;-1.474;2023-05-21T08:36:33;101787.31;;;13.02;68.53
55755;BME280;41674;52.290;-1.474;2023-05-21T08:39:03;101784.82;;;14.08;64.15
55755;BME280;41674;52.290;-1.474;2023-05-21T08:41:34;101789.13;;;12.82;67.05
55755;BME280;41674;52.290;-1.474;2023-05-21T08:44:02;101789.00;;;12.15;71.83
55755;BME280;41674;52.290;-1.474;2023-05-21T08:46:32;101789.84;;;12.39;70.91
55755;BME280;41674;52.290;-1.474;2023-05-21T08:49:02;101788.66;;;12.58;69.44
55755;BME280;41674;52.290;-1.474;2023-05-21T08:51:30;101790.96;;;12.07;72.10
55755;BME280;41674;52.290;-1.474;2023-05-21T08:54:01;101793.79;;;13.23;66.07
55755;BME280;41674;52.290;-1.474;2023-05-21T08:56:30;101788.41;;;13.78;66.86
55755;BME280;41674;52.290;-1.474;2023-05-21T08:58:58;101781.23;;;13.62;66.04
55755;BME280;41674;52.290;-1.474;2023-05-21T09:01:28;101783.00;;;12.85;66.06
55755;BME280;41674;52.290;-1.474;2023-05-21T09:03:58;101768.57;;;14.06;63.01
55755;BME280;41674;52.290;-1.474;2023-05-21T09:06:28;101769.15;;;14.84;60.23
55755;BME280;41674;52.290;-1.474;2023-05-21T09:09:01;101767.42;;;14.11;61.08
55755;BME280;41674;52.290;-1.474;2023-05-21T09:11:26;101769.28;;;14.36;60.94
55755;BME280;41674;52.290;-1.474;2023-05-21T09:13:57;101768.79;;;13.96;63.99
55755;BME280;41674;52.290;-1.474;2023-05-21T09:16:25;101772.28;;;14.91;60.36
55755;BME280;41674;52.290;-1.474;2023-05-21T09:18:54;101770.18;;;15.16;60.65
55755;BME280;41674;52.290;-1.474;2023-05-21T09:21:25;101767.45;;;13.54;61.58
55755;BME280;41674;52.290;-1.474;2023-05-21T09:23:54;101770.03;;;14.44;58.56
55755;BME280;41674;52.290;-1.474;2023-05-21T09:26:23;101770.68;;;14.61;60.68
55755;BME280;41674;52.290;-1.474;2023-05-21T09:28:56;101768.57;;;14.32;60.89
55755;BME280;41674;52.290;-1.474;2023-05-21T09:31:22;101766.29;;;15.29;58.74
55755;BME280;41674;52.290;-1.474;2023-05-21T09:33:52;101761.18;;;15.83;58.02
55755;BME280;41674;52.290;-1.474;2023-05-21T09:36:21;101766.04;;;15.34;58.04
55755;BME280;41674;52.290;-1.474;2023-05-21T09:38:51;101767.22;;;15.57;56.09
55755;BME280;41674;52.290;-1.474;2023-05-21T09:41:30;101765.94;;;15.56;56.18
55755;BME280;41674;52.290;-1.474;2023-05-21T09:43:50;101763.52;;;16.39;54.65
55755;BME280;41674;52.290;-1.474;2023-05-21T09:46:20;101765.78;;;16.23;53.58
55755;BME280;41674;52.290;-1.474;2023-05-21T09:48:49;101759.83;;;16.67;51.35
55755;BME280;41674;52.290;-1.474;2023-05-21T09:51:19;101759.12;;;16.48;54.20
55755;BME280;41674;52.290;-1.474;2023-05-21T09:53:49;101762.22;;;17.14;52.20
55755;BME280;41674;52.290;-1.474;2023-05-21T09:56:21;101759.55;;;16.19;52.60
55755;BME280;41674;52.290;-1.474;2023-05-21T09:58:47;101756.89;;;16.62;51.65
55755;BME280;41674;52.290;-1.474;2023-05-21T10:01:18;101753.60;;;16.09;53.95
55755;BME280;41674;52.290;-1.474;2023-05-21T10:03:50;101748.20;;;16.63;51.33
55755;BME280;41674;52.290;-1.474;2023-05-21T10:06:16;101750.25;;;16.86;54.09
55755;BME280;41674;52.290;-1.474;2023-05-21T10:08:47;101751.96;;;15.57;55.33
55755;BME280;41674;52.290;-1.474;2023-05-21T10:11:16;101744.99;;;16.03;54.13
55755;BME280;41674;52.290;-1.474;2023-05-21T10:13:47;101751.90;;;14.90;53.15
55755;BME280;41674;52.290;-1.474;2023-05-21T10:16:14;101747.74;;;15.26;55.92
55755;BME280;41674;52.290;-1.474;2023-05-21T10:18:45;101744.18;;;16.38;54.26
55755;BME280;41674;52.290;-1.474;2023-05-21T10:21:13;101737.99;;;16.76;53.62
55755;BME280;41674;52.290;-1.474;2023-05-21T10:23:43;101739.16;;;16.41;54.14
55755;BME280;41674;52.290;-1.474;2023-05-21T10:26:13;101735.20;;;15.59;55.49
55755;BME280;41674;52.290;-1.474;2023-05-21T10:28:42;101732.40;;;15.51;53.78
55755;BME280;41674;52.290;-1.474;2023-05-21T10:31:11;101738.21;;;14.75;57.65
55755;BME280;41674;52.290;-1.474;2023-05-21T10:33:41;101731.72;;;16.48;53.91
55755;BME280;41674;52.290;-1.474;2023-05-21T10:36:10;101727.99;;;16.39;53.36
55755;BME280;41674;52.290;-1.474;2023-05-21T10:38:40;101726.82;;;16.24;53.96
55755;BME280;41674;52.290;-1.474;2023-05-21T10:41:11;101732.38;;;16.90;50.72
55755;BME280;41674;52.290;-1.474;2023-05-21T10:43:45;101725.87;;;17.63;51.48
55755;BME280;41674;52.290;-1.474;2023-05-21T10:46:27;101726.81;;;15.30;53.56
55755;BME280;41674;52.290;-1.474;2023-05-21T10:48:51;101727.34;;;17.25;51.26
55755;BME280;41674;52.290;-1.474;2023-05-21T10:51:17;101722.20;;;16.46;50.79
55755;BME280;41674;52.290;-1.474;2023-05-21T10:53:51;101725.16;;;16.56;51.43
55755;BME280;41674;52.290;-1.474;2023-05-21T10:56:15;101719.69;;;17.37;51.02
55755;BME280;41674;52.290;-1.474;2023-05-21T10:58:49;101715.14;;;17.23;50.67
55755;BME280;41674;52.290;-1.474;2023-05-21T11:01:06;101712.11;;;16.97;48.69
55755;BME280;41674;52.290;-1.474;2023-05-21T11:03:36;101716.09;;;16.58;51.09
55755;BME280;41674;52.290;-1.474;2023-05-21T11:06:05;101715.54;;;15.03;53.10
55755;BME280;41674;52.290;-1.474;2023-05-21T11:08:35;101715.00;;;17.20;53.22
55755;BME280;41674;52.290;-1.474;2023-05-21T11:11:04;101709.23;;;17.33;49.99
55755;BME280;41674;52.290;-1.474;2023-05-21T11:16:05;101699.95;;;18.48;46.33
55755;BME280;41674;52.290;-1.474;2023-05-21T11:21:03;101698.56;;;17.83;48.20
55755;BME280;41674;52.290;-1.474;2023-05-21T11:26:01;101693.80;;;17.64;50.53
55755;BME280;41674;52.290;-1.474;2023-05-21T11:28:32;101688.22;;;17.87;47.46
55755;BME280;41674;52.290;-1.474;2023-05-21T11:33:29;101686.92;;;17.88;50.13
55755;BME280;41674;52.290;-1.474;2023-05-21T11:35:59;101678.18;;;17.99;50.24
55755;BME280;41674;52.290;-1.474;2023-05-21T11:38:29;101673.80;;;17.79;52.35
55755;BME280;41674;52.290;-1.474;2023-05-21T11:41:02;101678.13;;;18.38;52.29
55755;BME280;41674;52.290;-1.474;2023-05-21T11:43:27;101679.56;;;18.29;49.91
55755;BME280;41674;52.290;-1.474;2023-05-21T11:45:57;101676.39;;;18.71;50.27
55755;BME280;41674;52.290;-1.474;2023-05-21T11:48:26;101677.02;;;18.88;48.70
55755;BME280;41674;52.290;-1.474;2023-05-21T11:50:56;101681.33;;;17.43;55.57
55755;BME280;41674;52.290;-1.474;2023-05-21T11:53:25;101671.17;;;18.55;50.45
55755;BME280;41674;52.290;-1.474;2023-05-21T11:55:55;101682.15;;;16.24;54.69
55755;BME280;41674;52.290;-1.474;2023-05-21T11:58:24;101679.38;;;17.02;54.97
55755;BME280;41674;52.290;-1.474;2023-05-21T12:00:53;101673.41;;;18.40;53.84
55755;BME280;41674;52.290;-1.474;2023-05-21T12:03:23;101664.40;;;19.45;48.41
55755;BME280;41674;52.290;-1.474;2023-05-21T12:05:53;101679.71;;;17.07;51.69
55755;BME280;41674;52.290;-1.474;2023-05-21T12:08:23;101671.26;;;17.75;51.42
55755;BME280;41674;52.290;-1.474;2023-05-21T12:10:56;101674.91;;;19.31;50.39
55755;BME280;41674;52.290;-1.474;2023-05-21T12:13:22;101672.59;;;18.71;47.18
55755;BME280;41674;52.290;-1.474;2023-05-21T12:15:52;101672.27;;;17.55;51.59
55755;BME280;41674;52.290;-1.474;2023-05-21T12:18:21;101667.10;;;18.63;48.48
55755;BME280;41674;52.290;-1.474;2023-05-21T12:20:51;101665.78;;;18.90;48.39
55755;BME280;41674;52.290;-1.474;2023-05-21T12:23:22;101662.56;;;18.65;49.21
55755;BME280;41674;52.290;-1.474;2023-05-21T12:25:50;101660.75;;;19.03;48.15
55755;BME280;41674;52.290;-1.474;2023-05-21T12:28:20;101657.26;;;18.53;48.24
55755;BME280;41674;52.290;-1.474;2023-05-21T12:30:48;101649.49;;;19.37;48.02
55755;BME280;41674;52.290;-1.474;2023-05-21T12:33:18;101655.16;;;19.60;48.99
55755;BME280;41674;52.290;-1.474;2023-05-21T12:35:49;101650.24;;;19.62;48.58
55755;BME280;41674;52.290;-1.474;2023-05-21T12:38:16;101647.40;;;19.77;48.05
55755;BME280;41674;52.290;-1.474;2023-05-21T12:40:46;101653.00;;;19.17;46.49
55755;BME280;41674;52.290;-1.474;2023-05-21T12:43:15;101651.12;;;18.19;46.68
55755;BME280;41674;52.290;-1.474;2023-05-21T12:45:45;101649.37;;;19.09;48.48
55755;BME280;41674;52.290;-1.474;2023-05-21T12:48:14;101642.69;;;19.58;47.35
55755;BME280;41674;52.290;-1.474;2023-05-21T12:50:44;101650.68;;;17.80;49.00
55755;BME280;41674;52.290;-1.474;2023-05-21T12:53:13;101640.91;;;18.92;49.48
55755;BME280;41674;52.290;-1.474;2023-05-21T12:55:43;101644.77;;;19.04;45.53
55755;BME280;41674;52.290;-1.474;2023-05-21T12:58:13;101644.01;;;18.98;45.65
55755;BME280;41674;52.290;-1.474;2023-05-21T13:00:43;101641.24;;;20.20;44.31
55755;BME280;41674;52.290;-1.474;2023-05-21T13:03:12;101641.85;;;20.51;44.02
55755;BME280;41674;52.290;-1.474;2023-05-21T13:05:41;101640.21;;;20.80;45.84
55755;BME280;41674;52.290;-1.474;2023-05-21T13:08:10;101638.01;;;20.75;44.51